createdAt,value
2023-05-06T00:00:54.507Z,11.80
2023-05-06T00:01:54.477Z,11.77
2023-05-06T00:02:54.570Z,11.75
2023-05-06T00:03:54.625Z,11.78
2023-05-06T00:04:54.511Z,11.86
2023-05-06T00:05:54.448Z,11.83
2023-05-06T00:06:54.418Z,11.80
2023-05-06T00:07:54.444Z,11.80
2023-05-06T00:08:54.399Z,11.72
2023-05-06T00:09:54.380Z,11.94
2023-05-06T00:10:54.382Z,11.74
2023-05-06T00:11:54.373Z,11.80
2023-05-06T00:12:54.408Z,11.78
2023-05-06T00:13:54.341Z,11.70
2023-05-06T00:14:54.326Z,11.74
2023-05-06T00:15:54.358Z,11.62
2023-05-06T00:16:54.334Z,11.47
2023-05-06T00:17:54.336Z,11.36
2023-05-06T00:18:54.314Z,11.43
2023-05-06T00:19:54.270Z,11.53
2023-05-06T00:20:54.262Z,11.41
2023-05-06T00:21:54.276Z,11.49
2023-05-06T00:22:54.245Z,11.52
2023-05-06T00:23:54.241Z,11.50
2023-05-06T00:24:54.218Z,11.39
2023-05-06T00:25:54.208Z,11.41
2023-05-06T00:26:54.212Z,11.29
2023-05-06T00:27:54.185Z,11.11
2023-05-06T00:28:54.175Z,11.01
2023-05-06T00:29:54.158Z,11.10
2023-05-06T00:30:54.172Z,11.03
2023-05-06T00:31:54.191Z,11.03
2023-05-06T00:32:54.235Z,11.02
2023-05-06T00:33:54.130Z,11.03
2023-05-06T00:34:54.113Z,10.99
2023-05-06T00:35:54.114Z,10.94
2023-05-06T00:36:54.096Z,10.81
2023-05-06T00:37:54.074Z,10.68
2023-05-06T00:38:54.065Z,10.63
2023-05-06T00:39:54.104Z,10.55
2023-05-06T00:40:54.087Z,10.36
2023-05-06T00:41:54.029Z,10.52
2023-05-06T00:42:54.020Z,10.58
2023-05-06T00:43:54.015Z,10.51
2023-05-06T00:44:54.017Z,10.62
2023-05-06T00:45:54.146Z,10.60
2023-05-06T00:46:53.980Z,10.68
2023-05-06T00:47:53.982Z,10.76
2023-05-06T00:48:53.978Z,10.74
2023-05-06T00:49:53.980Z,10.77
2023-05-06T00:50:53.942Z,10.73
2023-05-06T00:51:53.925Z,10.77
2023-05-06T00:52:53.914Z,10.78
2023-05-06T00:53:53.906Z,10.74
2023-05-06T00:54:53.920Z,10.77
2023-05-06T00:55:53.873Z,10.77
2023-05-06T00:56:53.895Z,10.74
2023-05-06T00:57:53.855Z,10.71
2023-05-06T00:58:53.849Z,10.65
2023-05-06T00:59:53.833Z,10.73
2023-05-06T01:00:53.848Z,10.70
2023-05-06T01:01:53.881Z,10.68
2023-05-06T01:02:53.872Z,10.60
2023-05-06T01:03:54.109Z,10.56
2023-05-06T01:04:53.913Z,10.55
2023-05-06T01:05:53.791Z,10.56
2023-05-06T01:06:53.786Z,10.58
2023-05-06T01:07:53.777Z,10.60
2023-05-06T01:08:53.756Z,10.62
2023-05-06T01:09:53.737Z,10.73
2023-05-06T01:10:53.721Z,10.70
2023-05-06T01:11:53.728Z,10.68
2023-05-06T01:12:53.718Z,10.73
2023-05-06T01:13:53.685Z,10.68
2023-05-06T01:14:53.674Z,10.71
2023-05-06T01:15:53.701Z,10.65
2023-05-06T01:16:53.690Z,10.68
2023-05-06T01:17:53.694Z,10.76
2023-05-06T01:18:53.632Z,10.70
2023-05-06T01:19:53.619Z,10.73
2023-05-06T01:20:53.678Z,10.71
2023-05-06T01:21:53.599Z,10.70
2023-05-06T01:22:53.591Z,10.71
2023-05-06T01:23:53.579Z,10.74
2023-05-06T01:24:53.568Z,10.71
2023-05-06T01:25:53.580Z,10.73
2023-05-06T01:26:53.542Z,10.80
2023-05-06T01:27:53.558Z,10.76
2023-05-06T01:28:53.538Z,10.86
2023-05-06T01:29:53.514Z,10.86
2023-05-06T01:30:53.537Z,10.80
2023-05-06T01:31:53.508Z,10.77
2023-05-06T01:32:53.522Z,10.83
2023-05-06T01:33:53.473Z,10.84
2023-05-06T01:34:53.455Z,10.77
2023-05-06T01:35:53.478Z,10.86
2023-05-06T01:36:53.755Z,10.83
2023-05-06T01:37:53.428Z,10.81
2023-05-06T01:38:53.418Z,10.78
2023-05-06T01:39:53.406Z,10.81
2023-05-06T01:40:53.424Z,10.86
2023-05-06T01:41:53.396Z,10.83
2023-05-06T01:42:53.372Z,10.81
2023-05-06T01:43:53.379Z,10.71
2023-05-06T01:44:53.351Z,10.80
2023-05-06T01:45:53.559Z,10.81
2023-05-06T01:46:53.324Z,10.76
2023-05-06T01:47:53.328Z,10.70
2023-05-06T01:48:53.313Z,10.73
2023-05-06T01:49:53.291Z,10.74
2023-05-06T01:50:53.296Z,10.70
2023-05-06T01:51:53.272Z,10.68
2023-05-06T01:52:53.350Z,10.60
2023-05-06T01:53:53.253Z,10.46
2023-05-06T01:54:53.250Z,10.63
2023-05-06T01:55:53.251Z,10.65
2023-05-06T01:56:53.221Z,10.60
2023-05-06T01:57:53.208Z,10.46
2023-05-06T01:58:53.199Z,10.46
2023-05-06T01:59:53.209Z,10.51
2023-05-06T02:00:53.167Z,10.52
2023-05-06T02:01:53.221Z,10.36
2023-05-06T02:02:53.340Z,10.39
2023-05-06T02:03:53.373Z,10.36
2023-05-06T02:04:53.188Z,10.40
2023-05-06T02:05:53.125Z,10.34
2023-05-06T02:06:53.111Z,10.42
2023-05-06T02:07:53.110Z,10.39
2023-05-06T02:08:53.302Z,10.37
2023-05-06T02:09:53.133Z,10.37
2023-05-06T02:10:53.066Z,10.34
2023-05-06T02:11:53.055Z,10.26
2023-05-06T02:12:53.060Z,10.32
2023-05-06T02:13:53.049Z,10.32
2023-05-06T02:14:53.055Z,10.32
2023-05-06T02:15:53.058Z,10.33
2023-05-06T02:16:53.001Z,10.33
2023-05-06T02:17:53.084Z,10.25
2023-05-06T02:18:53.009Z,10.37
2023-05-06T02:19:52.966Z,10.30
2023-05-06T02:20:52.954Z,10.17
2023-05-06T02:21:52.946Z,10.18
2023-05-06T02:22:52.974Z,10.24
2023-05-06T02:23:52.926Z,10.30
2023-05-06T02:24:53.045Z,10.19
2023-05-06T02:25:52.918Z,10.04
2023-05-06T02:26:52.886Z,10.07
2023-05-06T02:27:52.899Z,10.04
2023-05-06T02:28:52.866Z,10.06
2023-05-06T02:29:52.855Z,10.10
2023-05-06T02:30:52.852Z,10.04
2023-05-06T02:31:52.953Z,9.97
2023-05-06T02:32:52.908Z,9.97
2023-05-06T02:33:52.813Z,10.07
2023-05-06T02:34:52.811Z,9.99
2023-05-06T02:35:52.798Z,10.04
2023-05-06T02:36:52.816Z,9.94
2023-05-06T02:37:52.789Z,10.01
2023-05-06T02:38:52.757Z,10.03
2023-05-06T02:39:52.748Z,10.14
2023-05-06T02:40:52.759Z,10.07
2023-05-06T02:41:52.765Z,9.96
2023-05-06T02:42:52.776Z,9.97
2023-05-06T02:43:52.703Z,9.91
2023-05-06T02:44:52.688Z,9.93
2023-05-06T02:45:52.738Z,10.03
2023-05-06T02:46:52.683Z,9.97
2023-05-06T02:47:52.706Z,10.04
2023-05-06T02:48:52.684Z,10.06
2023-05-06T02:49:52.637Z,9.97
2023-05-06T02:50:52.652Z,10.06
2023-05-06T02:51:52.639Z,9.88
2023-05-06T02:52:52.598Z,9.75
2023-05-06T02:53:52.598Z,9.64
2023-05-06T02:54:52.592Z,9.53
2023-05-06T02:55:52.596Z,9.50
2023-05-06T02:56:52.672Z,9.40
2023-05-06T02:57:52.552Z,9.39
2023-05-06T02:58:52.551Z,9.32
2023-05-06T02:59:52.550Z,9.18
2023-05-06T03:00:52.560Z,9.12
2023-05-06T03:01:52.509Z,9.18
2023-05-06T03:02:52.568Z,9.24
2023-05-06T03:03:52.517Z,9.32
2023-05-06T03:04:52.492Z,9.27
2023-05-06T03:05:52.500Z,9.32
2023-05-06T03:06:52.457Z,9.32
2023-05-06T03:07:52.439Z,9.40
2023-05-06T03:08:52.437Z,9.45
2023-05-06T03:09:52.446Z,9.42
2023-05-06T03:10:52.432Z,9.52
2023-05-06T03:11:52.413Z,9.43
2023-05-06T03:12:52.575Z,9.40
2023-05-06T03:13:52.377Z,9.34
2023-05-06T03:14:52.359Z,9.38
2023-05-06T03:15:52.378Z,9.40
2023-05-06T03:16:52.400Z,9.42
2023-05-06T03:17:52.388Z,9.48
2023-05-06T03:18:52.315Z,9.45
2023-05-06T03:19:52.325Z,9.43
2023-05-06T03:20:52.298Z,9.45
2023-05-06T03:21:52.286Z,9.32
2023-05-06T03:22:52.278Z,9.39
2023-05-06T03:23:52.282Z,9.35
2023-05-06T03:24:52.246Z,9.46
2023-05-06T03:25:52.238Z,9.43
2023-05-06T03:26:52.227Z,9.56
2023-05-06T03:27:52.219Z,9.50
2023-05-06T03:28:52.338Z,9.42
2023-05-06T03:29:52.201Z,9.46
2023-05-06T03:30:52.189Z,9.42
2023-05-06T03:31:52.196Z,9.45
2023-05-06T03:32:52.301Z,9.45
2023-05-06T03:33:52.153Z,9.45
2023-05-06T03:34:52.177Z,9.48
2023-05-06T03:35:52.137Z,9.48
2023-05-06T03:36:52.121Z,9.43
2023-05-06T03:37:52.128Z,9.42
2023-05-06T03:38:52.094Z,9.52
2023-05-06T03:39:52.108Z,9.50
2023-05-06T03:40:52.073Z,9.52
2023-05-06T03:41:52.074Z,9.58
2023-05-06T03:42:52.074Z,9.56
2023-05-06T03:43:52.041Z,9.48
2023-05-06T03:44:52.123Z,9.48
2023-05-06T03:45:52.045Z,9.39
2023-05-06T03:46:52.025Z,9.34
2023-05-06T03:47:52.014Z,9.43
2023-05-06T03:48:51.988Z,9.45
2023-05-06T03:49:51.976Z,9.48
2023-05-06T03:50:51.966Z,9.64
2023-05-06T03:51:51.974Z,9.56
2023-05-06T03:52:51.946Z,9.58
2023-05-06T03:53:53.494Z,9.49
2023-05-06T03:54:51.921Z,9.42
2023-05-06T03:55:51.911Z,9.43
2023-05-06T03:56:51.917Z,9.35
2023-05-06T03:57:51.901Z,9.39
2023-05-06T03:58:51.877Z,9.50
2023-05-06T03:59:51.874Z,9.48
2023-05-06T04:00:51.907Z,9.46
2023-05-06T04:01:51.889Z,9.42
2023-05-06T04:02:51.907Z,9.32
2023-05-06T04:03:51.945Z,9.28
2023-05-06T04:04:51.861Z,9.27
2023-05-06T04:05:51.818Z,9.28
2023-05-06T04:06:51.785Z,9.32
2023-05-06T04:07:51.788Z,9.32
2023-05-06T04:08:51.769Z,9.31
2023-05-06T04:09:51.777Z,9.40
2023-05-06T04:10:51.765Z,9.31
2023-05-06T04:11:51.730Z,9.32
2023-05-06T04:12:51.729Z,9.34
2023-05-06T04:13:51.718Z,9.48
2023-05-06T04:14:51.729Z,9.32
2023-05-06T04:15:51.703Z,9.34
2023-05-06T04:16:51.765Z,9.32
2023-05-06T04:17:51.677Z,9.25
2023-05-06T04:18:51.793Z,9.25
2023-05-06T04:19:51.686Z,9.35
2023-05-06T04:20:51.675Z,9.42
2023-05-06T04:21:51.627Z,9.48
2023-05-06T04:22:51.625Z,9.39
2023-05-06T04:23:51.623Z,9.45
2023-05-06T04:24:51.623Z,9.40
2023-05-06T04:25:51.582Z,9.42
2023-05-06T04:26:51.566Z,9.32
2023-05-06T04:27:51.559Z,9.28
2023-05-06T04:28:51.570Z,9.27
2023-05-06T04:29:51.579Z,9.24
2023-05-06T04:30:51.520Z,9.25
2023-05-06T04:31:51.551Z,9.23
2023-05-06T04:32:51.705Z,9.28
2023-05-06T04:33:51.512Z,9.27
2023-05-06T04:34:51.487Z,9.24
2023-05-06T04:35:51.481Z,9.30
2023-05-06T04:36:51.464Z,9.27
2023-05-06T04:37:51.485Z,9.30
2023-05-06T04:38:51.455Z,9.43
2023-05-06T04:39:51.442Z,9.39
2023-05-06T04:40:51.422Z,9.39
2023-05-06T04:41:51.408Z,9.49
2023-05-06T04:42:51.505Z,9.42
2023-05-06T04:43:51.382Z,9.43
2023-05-06T04:44:51.395Z,9.45
2023-05-06T04:45:51.410Z,9.43
2023-05-06T04:46:52.357Z,9.42
2023-05-06T04:47:51.391Z,9.48
2023-05-06T04:48:51.421Z,9.39
2023-05-06T04:49:51.338Z,9.56
2023-05-06T04:50:51.341Z,9.52
2023-05-06T04:51:51.309Z,9.48
2023-05-06T04:52:51.311Z,9.40
2023-05-06T04:53:51.276Z,9.35
2023-05-06T04:54:51.264Z,9.38
2023-05-06T04:55:51.259Z,9.32
2023-05-06T04:56:51.265Z,9.24
2023-05-06T04:57:51.243Z,9.28
2023-05-06T04:58:51.222Z,9.25
2023-05-06T04:59:51.214Z,9.28
2023-05-06T05:00:51.200Z,9.32
2023-05-06T05:01:51.271Z,9.31
2023-05-06T05:02:51.529Z,9.27
2023-05-06T05:03:51.249Z,9.27
2023-05-06T05:04:51.250Z,9.25
2023-05-06T05:05:51.167Z,9.24
2023-05-06T05:06:59.142Z,9.24
2023-05-06T05:07:51.123Z,9.21
2023-05-06T05:08:51.111Z,9.12
2023-05-06T05:09:51.160Z,9.02
2023-05-06T05:10:51.110Z,8.97
2023-05-06T05:11:51.113Z,9.05
2023-05-06T05:12:51.143Z,9.04
2023-05-06T05:13:51.057Z,9.25
2023-05-06T05:14:51.095Z,9.21
2023-05-06T05:15:51.047Z,9.12
2023-05-06T05:16:51.067Z,9.23
2023-05-06T05:17:51.162Z,9.20
2023-05-06T05:18:50.999Z,9.18
2023-05-06T05:19:51.032Z,9.28
2023-05-06T05:20:51.089Z,9.28
2023-05-06T05:21:50.974Z,9.30
2023-05-06T05:22:50.960Z,9.38
2023-05-06T05:23:50.947Z,9.35
2023-05-06T05:24:50.957Z,9.30
2023-05-06T05:25:50.924Z,9.38
2023-05-06T05:26:50.916Z,9.25
2023-05-06T05:27:50.912Z,9.31
2023-05-06T05:28:50.898Z,9.28
2023-05-06T05:29:50.921Z,9.24
2023-05-06T05:30:50.913Z,9.12
2023-05-06T05:31:50.862Z,9.24
2023-05-06T05:32:50.963Z,9.32
2023-05-06T05:33:50.982Z,9.31
2023-05-06T05:34:50.890Z,9.30
2023-05-06T05:35:50.825Z,9.30
2023-05-06T05:36:50.841Z,9.49
2023-05-06T05:37:50.796Z,9.49
2023-05-06T05:38:50.808Z,9.60
2023-05-06T05:39:50.772Z,9.60
2023-05-06T05:40:50.762Z,9.66
2023-05-06T05:41:50.763Z,9.70
2023-05-06T05:42:50.743Z,9.73
2023-05-06T05:43:50.748Z,9.66
2023-05-06T05:44:50.716Z,9.63
2023-05-06T05:45:50.715Z,9.66
2023-05-06T05:46:50.819Z,9.64
2023-05-06T05:47:50.755Z,9.81
2023-05-06T05:48:50.716Z,9.70
2023-05-06T05:49:50.664Z,9.79
2023-05-06T05:50:50.652Z,9.78
2023-05-06T05:51:50.645Z,9.86
2023-05-06T05:52:50.671Z,9.81
2023-05-06T05:53:50.618Z,9.94
2023-05-06T05:54:50.604Z,9.83
2023-05-06T05:55:50.606Z,9.83
2023-05-06T05:56:50.596Z,9.76
2023-05-06T05:57:50.611Z,9.70
2023-05-06T05:58:50.575Z,9.66
2023-05-06T05:59:50.555Z,9.57
2023-05-06T06:00:50.537Z,9.66
2023-05-06T06:01:50.548Z,9.68
2023-05-06T06:02:50.571Z,9.68
2023-05-06T06:03:50.696Z,9.64
2023-05-06T06:04:50.583Z,9.63
2023-05-06T06:05:50.490Z,9.61
2023-05-06T06:06:50.475Z,9.56
2023-05-06T06:07:50.464Z,9.46
2023-05-06T06:08:50.674Z,9.50
2023-05-06T06:09:50.443Z,9.48
2023-05-06T06:10:50.425Z,9.63
2023-05-06T06:11:50.443Z,9.48
2023-05-06T06:12:50.446Z,9.42
2023-05-06T06:13:50.408Z,9.49
2023-05-06T06:14:50.393Z,9.46
2023-05-06T06:15:50.420Z,9.48
2023-05-06T06:16:50.369Z,9.57
2023-05-06T06:17:50.385Z,9.63
2023-05-06T06:18:50.348Z,9.67
2023-05-06T06:19:50.336Z,9.67
2023-05-06T06:20:52.397Z,9.81
2023-05-06T06:21:50.330Z,9.79
2023-05-06T06:22:50.312Z,9.85
2023-05-06T06:23:50.297Z,9.94
2023-05-06T06:24:50.293Z,9.97
2023-05-06T06:25:50.281Z,10.00
2023-05-06T06:26:50.268Z,10.03
2023-05-06T06:27:50.247Z,10.07
2023-05-06T06:28:50.232Z,10.14
2023-05-06T06:29:50.282Z,10.01
2023-05-06T06:30:50.244Z,10.22
2023-05-06T06:31:50.270Z,10.22
2023-05-06T06:32:50.246Z,10.12
2023-05-06T06:33:50.182Z,10.09
2023-05-06T06:34:50.201Z,10.14
2023-05-06T06:35:50.219Z,10.10
2023-05-06T06:36:50.149Z,10.21
2023-05-06T06:37:50.140Z,10.21
2023-05-06T06:38:50.128Z,10.18
2023-05-06T06:39:50.133Z,10.17
2023-05-06T06:40:50.146Z,10.14
2023-05-06T06:41:50.090Z,10.10
2023-05-06T06:42:50.084Z,10.09
2023-05-06T06:43:50.086Z,10.12
2023-05-06T06:44:50.078Z,10.12
2023-05-06T06:45:50.106Z,10.17
2023-05-06T06:46:50.039Z,10.03
2023-05-06T06:47:50.110Z,10.01
2023-05-06T06:48:50.020Z,9.94
2023-05-06T06:49:50.006Z,9.96
2023-05-06T06:50:49.992Z,9.93
2023-05-06T06:51:49.982Z,9.93
2023-05-06T06:52:50.000Z,9.94
2023-05-06T06:53:49.977Z,10.01
2023-05-06T06:54:49.964Z,9.91
2023-05-06T06:55:49.950Z,9.85
2023-05-06T06:56:50.121Z,9.85
2023-05-06T06:57:49.950Z,9.88
2023-05-06T06:58:52.415Z,9.99
2023-05-06T06:59:49.897Z,9.86
2023-05-06T07:00:49.960Z,9.93
2023-05-06T07:01:49.921Z,9.93
2023-05-06T07:02:49.897Z,9.96
2023-05-06T07:03:49.916Z,9.93
2023-05-06T07:04:49.840Z,9.99
2023-05-06T07:05:49.828Z,10.06
2023-05-06T07:06:49.823Z,10.10
2023-05-06T07:07:49.837Z,10.01
2023-05-06T07:08:49.809Z,9.97
2023-05-06T07:09:49.783Z,9.93
2023-05-06T07:10:49.788Z,10.01
2023-05-06T07:11:49.779Z,9.99
2023-05-06T07:12:49.923Z,9.99
2023-05-06T07:13:49.760Z,10.00
2023-05-06T07:14:49.731Z,10.07
2023-05-06T07:15:49.731Z,9.96
2023-05-06T07:16:51.445Z,10.00
2023-05-06T07:17:49.721Z,9.94
2023-05-06T07:18:49.718Z,10.07
2023-05-06T07:19:49.676Z,10.07
2023-05-06T07:20:49.707Z,10.07
2023-05-06T07:21:49.651Z,9.89
2023-05-06T07:22:49.667Z,9.82
2023-05-06T07:23:49.631Z,9.88
2023-05-06T07:24:49.621Z,9.88
2023-05-06T07:25:49.627Z,9.79
2023-05-06T07:26:49.616Z,9.93
2023-05-06T07:27:49.611Z,10.00
2023-05-06T07:28:49.713Z,9.83
2023-05-06T07:29:49.569Z,9.86
2023-05-06T07:30:49.650Z,9.82
2023-05-06T07:31:49.560Z,9.88
2023-05-06T07:32:49.572Z,9.85
2023-05-06T07:33:49.531Z,9.97
2023-05-06T07:34:49.556Z,9.91
2023-05-06T07:35:49.519Z,9.85
2023-05-06T07:36:49.518Z,9.88
2023-05-06T07:37:49.620Z,9.79
2023-05-06T07:38:49.477Z,9.70
2023-05-06T07:39:49.460Z,9.81
2023-05-06T07:40:49.455Z,9.70
2023-05-06T07:41:49.445Z,9.78
2023-05-06T07:42:49.463Z,9.81
2023-05-06T07:43:49.445Z,9.75
2023-05-06T07:44:49.617Z,9.70
2023-05-06T07:45:49.394Z,9.75
2023-05-06T07:46:49.458Z,9.73
2023-05-06T07:47:49.401Z,9.68
2023-05-06T07:48:49.431Z,9.68
2023-05-06T07:49:49.379Z,9.66
2023-05-06T07:50:49.334Z,9.78
2023-05-06T07:51:49.322Z,9.88
2023-05-06T07:52:49.325Z,9.82
2023-05-06T07:53:49.355Z,9.85
2023-05-06T07:54:49.312Z,9.81
2023-05-06T07:55:49.300Z,9.82
2023-05-06T07:56:49.293Z,9.88
2023-05-06T07:57:49.277Z,9.86
2023-05-06T07:58:49.273Z,9.89
2023-05-06T07:59:49.249Z,9.85
2023-05-06T08:00:49.329Z,9.83
2023-05-06T08:01:49.216Z,9.82
2023-05-06T08:02:49.300Z,9.82
2023-05-06T08:03:49.359Z,9.82
2023-05-06T08:04:51.517Z,9.86
2023-05-06T08:05:49.184Z,9.96
2023-05-06T08:06:49.193Z,10.03
2023-05-06T08:07:49.169Z,9.96
2023-05-06T08:08:49.165Z,9.96
2023-05-06T08:09:49.132Z,9.99
2023-05-06T08:10:49.145Z,9.97
2023-05-06T08:11:49.108Z,10.03
2023-05-06T08:12:49.187Z,10.03
2023-05-06T08:13:49.093Z,10.09
2023-05-06T08:14:49.098Z,10.01
2023-05-06T08:15:49.085Z,10.10
2023-05-06T08:16:49.130Z,10.00
2023-05-06T08:17:49.126Z,10.10
2023-05-06T08:18:49.055Z,10.03
2023-05-06T08:19:49.019Z,10.09
2023-05-06T08:20:49.041Z,10.12
2023-05-06T08:21:49.015Z,10.06
2023-05-06T08:22:49.057Z,10.07
2023-05-06T08:23:48.973Z,10.03
2023-05-06T08:24:48.970Z,10.15
2023-05-06T08:25:48.961Z,10.06
2023-05-06T08:26:49.021Z,10.12
2023-05-06T08:27:48.942Z,10.17
2023-05-06T08:28:48.946Z,10.10
2023-05-06T08:29:48.926Z,10.21
2023-05-06T08:30:48.947Z,10.25
2023-05-06T08:31:49.019Z,10.14
2023-05-06T08:32:49.032Z,10.06
2023-05-06T08:33:48.880Z,9.99
2023-05-06T08:34:48.860Z,9.93
2023-05-06T08:35:48.891Z,9.89
2023-05-06T08:36:48.849Z,9.89
2023-05-06T08:37:48.827Z,9.91
2023-05-06T08:38:48.835Z,9.89
2023-05-06T08:39:48.805Z,10.00
2023-05-06T08:40:48.918Z,10.01
2023-05-06T08:41:48.782Z,10.00
2023-05-06T08:42:48.779Z,10.10
2023-05-06T08:43:48.781Z,10.14
2023-05-06T08:44:48.750Z,10.09
2023-05-06T08:45:48.766Z,10.09
2023-05-06T08:46:48.753Z,10.18
2023-05-06T08:47:48.757Z,10.14
2023-05-06T08:48:48.831Z,10.22
2023-05-06T08:49:48.825Z,10.28
2023-05-06T08:50:48.698Z,10.25
2023-05-06T08:51:48.680Z,10.09
2023-05-06T08:52:48.661Z,10.03
2023-05-06T08:53:48.669Z,10.04
2023-05-06T08:54:48.675Z,10.06
2023-05-06T08:55:48.625Z,9.97
2023-05-06T08:56:48.618Z,9.97
2023-05-06T08:57:48.604Z,10.12
2023-05-06T08:58:48.609Z,10.14
2023-05-06T08:59:48.611Z,10.15
2023-05-06T09:00:48.625Z,10.21
2023-05-06T09:01:48.577Z,10.14
2023-05-06T09:02:48.721Z,10.07
2023-05-06T09:03:48.584Z,10.14
2023-05-06T09:04:48.596Z,10.09
2023-05-06T09:05:48.520Z,10.14
2023-05-06T09:06:48.526Z,10.14
2023-05-06T09:07:48.514Z,10.21
2023-05-06T09:08:48.506Z,10.10
2023-05-06T09:09:48.474Z,10.19
2023-05-06T09:10:48.470Z,10.19
2023-05-06T09:11:48.452Z,10.19
2023-05-06T09:12:48.489Z,10.26
2023-05-06T09:13:48.447Z,10.26
2023-05-06T09:14:48.431Z,10.34
2023-05-06T09:15:48.419Z,10.39
2023-05-06T09:16:48.442Z,10.43
2023-05-06T09:17:48.436Z,10.46
2023-05-06T09:18:48.401Z,10.53
2023-05-06T09:19:48.361Z,10.42
2023-05-06T09:20:48.455Z,10.47
2023-05-06T09:21:48.342Z,10.28
2023-05-06T09:22:48.409Z,10.39
2023-05-06T09:23:48.325Z,10.30
2023-05-06T09:24:48.334Z,10.25
2023-05-06T09:25:48.316Z,10.19
2023-05-06T09:26:48.303Z,10.25
2023-05-06T09:27:48.293Z,10.22
2023-05-06T09:28:48.277Z,10.22
2023-05-06T09:29:48.263Z,10.22
2023-05-06T09:30:48.330Z,10.15
2023-05-06T09:31:48.297Z,10.12
2023-05-06T09:32:48.276Z,10.22
2023-05-06T09:33:48.215Z,10.21
2023-05-06T09:34:48.209Z,10.33
2023-05-06T09:35:48.199Z,10.28
2023-05-06T09:36:48.294Z,10.39
2023-05-06T09:37:48.178Z,10.36
2023-05-06T09:38:48.163Z,10.30
2023-05-06T09:39:48.158Z,10.32
2023-05-06T09:40:48.219Z,10.37
2023-05-06T09:41:48.150Z,10.34
2023-05-06T09:42:48.123Z,10.34
2023-05-06T09:43:48.158Z,10.39
2023-05-06T09:44:48.115Z,10.40
2023-05-06T09:45:48.109Z,10.47
2023-05-06T09:46:48.081Z,10.53
2023-05-06T09:47:48.081Z,10.55
2023-05-06T09:48:48.049Z,10.59
2023-05-06T09:49:48.094Z,10.63
2023-05-06T09:50:48.069Z,10.60
2023-05-06T09:51:48.050Z,10.71
2023-05-06T09:52:48.032Z,10.47
2023-05-06T09:53:48.005Z,10.52
2023-05-06T09:54:48.011Z,10.60
2023-05-06T09:55:47.998Z,10.66
2023-05-06T09:56:47.983Z,10.76
2023-05-06T09:57:47.954Z,10.78
2023-05-06T09:58:47.941Z,10.78
2023-05-06T09:59:47.944Z,10.84
2023-05-06T10:00:47.941Z,10.83
2023-05-06T10:01:47.972Z,10.76
2023-05-06T10:02:48.072Z,10.80
2023-05-06T10:03:47.970Z,10.74
2023-05-06T10:04:48.146Z,10.63
2023-05-06T10:05:47.866Z,10.71
2023-05-06T10:06:47.873Z,10.52
2023-05-06T10:07:47.850Z,10.52
2023-05-06T10:08:47.946Z,10.52
2023-05-06T10:09:47.823Z,10.40
2023-05-06T10:10:47.828Z,10.47
2023-05-06T10:11:47.801Z,10.53
2023-05-06T10:12:47.846Z,10.47
2023-05-06T10:13:47.805Z,10.52
2023-05-06T10:14:47.779Z,10.55
2023-05-06T10:15:47.803Z,10.52
2023-05-06T10:16:47.746Z,10.53
2023-05-06T10:17:47.777Z,10.63
2023-05-06T10:18:47.762Z,10.63
2023-05-06T10:19:47.716Z,10.73
2023-05-06T10:20:47.700Z,10.86
2023-05-06T10:21:47.693Z,10.81
2023-05-06T10:22:47.697Z,10.77
2023-05-06T10:23:47.689Z,10.89
2023-05-06T10:24:47.836Z,10.74
2023-05-06T10:25:47.658Z,10.78
2023-05-06T10:26:47.655Z,10.71
2023-05-06T10:27:47.629Z,10.77
2023-05-06T10:28:47.645Z,10.71
2023-05-06T10:29:47.606Z,10.74
2023-05-06T10:30:47.593Z,10.76
2023-05-06T10:31:47.584Z,10.74
2023-05-06T10:32:47.602Z,10.78
2023-05-06T10:33:47.580Z,10.80
2023-05-06T10:34:47.563Z,10.81
2023-05-06T10:35:47.530Z,10.76
2023-05-06T10:36:47.555Z,10.73
2023-05-06T10:37:47.539Z,10.78
2023-05-06T10:38:47.512Z,10.68
2023-05-06T10:39:47.489Z,10.76
2023-05-06T10:40:47.611Z,10.77
2023-05-06T10:41:47.478Z,10.80
2023-05-06T10:42:47.458Z,10.76
2023-05-06T10:43:47.451Z,10.78
2023-05-06T10:44:47.447Z,10.89
2023-05-06T10:45:47.442Z,10.86
2023-05-06T10:46:47.435Z,10.89
2023-05-06T10:47:47.516Z,11.01
2023-05-06T10:48:47.388Z,10.95
2023-05-06T10:49:47.374Z,10.98
2023-05-06T10:50:47.382Z,10.83
2023-05-06T10:51:47.358Z,10.94
2023-05-06T10:52:47.339Z,10.83
2023-05-06T10:53:47.341Z,10.92
2023-05-06T10:54:47.330Z,10.95
2023-05-06T10:55:47.330Z,10.94
2023-05-06T10:56:47.389Z,11.06
2023-05-06T10:57:47.292Z,10.94
2023-05-06T10:58:47.286Z,10.92
2023-05-06T10:59:47.289Z,10.92
2023-05-06T11:00:47.280Z,10.80
2023-05-06T11:01:47.246Z,10.88
2023-05-06T11:02:47.756Z,10.83
2023-05-06T11:03:47.249Z,10.84
2023-05-06T11:04:47.258Z,10.98
2023-05-06T11:05:47.224Z,10.92
2023-05-06T11:06:47.220Z,10.83
2023-05-06T11:07:47.181Z,10.80
2023-05-06T11:08:47.173Z,10.83
2023-05-06T11:09:47.173Z,10.89
2023-05-06T11:10:47.148Z,10.86
2023-05-06T11:11:47.167Z,10.89
2023-05-06T11:12:47.454Z,10.94
2023-05-06T11:13:48.609Z,10.92
2023-05-06T11:14:47.129Z,10.91
2023-05-06T11:15:47.094Z,10.80
2023-05-06T11:16:47.141Z,10.86
2023-05-06T11:17:47.152Z,10.88
2023-05-06T11:18:47.082Z,10.89
2023-05-06T11:19:47.068Z,10.84
2023-05-06T11:20:47.050Z,10.78
2023-05-06T11:21:48.907Z,10.88
2023-05-06T11:22:47.015Z,10.80
2023-05-06T11:23:47.192Z,10.77
2023-05-06T11:24:47.008Z,10.88
2023-05-06T11:25:46.990Z,10.88
2023-05-06T11:26:46.979Z,10.88
2023-05-06T11:27:48.438Z,10.81
2023-05-06T11:28:47.056Z,10.88
2023-05-06T11:29:46.959Z,10.84
2023-05-06T11:30:46.965Z,10.77
2023-05-06T11:31:46.916Z,10.77
2023-05-06T11:32:47.004Z,10.76
2023-05-06T11:33:46.944Z,10.86
2023-05-06T11:34:46.949Z,10.83
2023-05-06T11:35:46.914Z,10.84
2023-05-06T11:36:46.956Z,10.88
2023-05-06T11:37:46.997Z,10.89
2023-05-06T11:38:46.917Z,10.78
2023-05-06T11:39:46.839Z,10.86
2023-05-06T11:40:46.921Z,10.83
2023-05-06T11:41:46.914Z,10.78
2023-05-06T11:42:46.902Z,10.74
2023-05-06T11:43:46.795Z,10.77
2023-05-06T11:44:46.801Z,10.74
2023-05-06T11:45:46.792Z,10.83
2023-05-06T11:46:46.803Z,10.68
2023-05-06T11:47:46.838Z,10.71
2023-05-06T11:48:46.732Z,10.71
2023-05-06T11:49:46.831Z,10.86
2023-05-06T11:50:46.711Z,10.80
2023-05-06T11:51:46.708Z,10.89
2023-05-06T11:52:46.707Z,10.77
2023-05-06T11:53:46.713Z,10.86
2023-05-06T11:54:48.470Z,10.88
2023-05-06T11:55:46.714Z,10.83
2023-05-06T11:56:46.911Z,10.77
2023-05-06T11:57:46.639Z,10.76
2023-05-06T11:58:46.623Z,10.77
2023-05-06T11:59:46.614Z,10.70
2023-05-06T12:00:47.398Z,10.71
2023-05-06T12:01:46.612Z,10.70
2023-05-06T12:02:46.667Z,10.76
2023-05-06T12:03:46.786Z,10.76
2023-05-06T12:04:46.603Z,10.74
2023-05-06T12:05:46.558Z,10.80
2023-05-06T12:06:46.541Z,10.70
2023-05-06T12:07:46.547Z,10.74
2023-05-06T12:08:46.523Z,10.71
2023-05-06T12:09:46.525Z,10.63
2023-05-06T12:10:46.507Z,10.65
2023-05-06T12:11:46.484Z,10.63
2023-05-06T12:12:46.546Z,10.59
2023-05-06T12:13:46.489Z,10.60
2023-05-06T12:14:46.463Z,10.53
2023-05-06T12:15:46.458Z,10.60
2023-05-06T12:16:46.481Z,10.52
2023-05-06T12:17:46.476Z,10.42
2023-05-06T12:18:46.416Z,10.47
2023-05-06T12:19:46.451Z,10.55
2023-05-06T12:20:46.382Z,10.58
2023-05-06T12:21:46.383Z,10.62
2023-05-06T12:22:46.358Z,10.62
2023-05-06T12:23:46.384Z,10.53
2023-05-06T12:24:46.348Z,10.51
2023-05-06T12:25:46.433Z,10.55
2023-05-06T12:26:46.334Z,10.58
2023-05-06T12:27:46.302Z,10.52
2023-05-06T12:28:46.316Z,10.42
2023-05-06T12:29:46.387Z,10.40
2023-05-06T12:30:46.328Z,10.39
2023-05-06T12:31:46.361Z,10.39
2023-05-06T12:32:46.355Z,10.39
2023-05-06T12:33:46.445Z,10.37
2023-05-06T12:34:46.244Z,10.32
2023-05-06T12:35:46.225Z,10.30
2023-05-06T12:36:46.209Z,10.39
2023-05-06T12:37:46.201Z,10.26
2023-05-06T12:38:46.213Z,10.30
2023-05-06T12:39:46.193Z,10.30
2023-05-06T12:40:46.190Z,10.30
2023-05-06T12:41:46.171Z,10.25
2023-05-06T12:42:46.146Z,10.26
2023-05-06T12:43:46.137Z,10.34
2023-05-06T12:44:46.157Z,10.37
2023-05-06T12:45:46.144Z,10.40
2023-05-06T12:46:46.102Z,10.37
2023-05-06T12:47:46.145Z,10.36
2023-05-06T12:48:46.171Z,10.46
2023-05-06T12:49:46.078Z,10.47
2023-05-06T12:50:46.062Z,10.51
2023-05-06T12:51:47.731Z,10.43
2023-05-06T12:52:46.056Z,10.52
2023-05-06T12:53:46.025Z,10.51
2023-05-06T12:54:46.041Z,10.52
2023-05-06T12:55:46.028Z,10.36
2023-05-06T12:56:46.043Z,10.43
2023-05-06T12:57:46.003Z,10.39
2023-05-06T12:58:45.979Z,10.37
2023-05-06T12:59:45.992Z,10.34
2023-05-06T13:00:45.974Z,10.52
2023-05-06T13:01:45.964Z,10.46
2023-05-06T13:02:46.078Z,10.68